sensor_id;sensor_type;location;lat;lon;timestamp;P1;durP1;ratioP1;P2;durP2;ratioP2
15363;SDS011;7781;49.690;6.472;2022-11-15T00:01:16;13.57;;;8.30;;
15363;SDS011;7781;49.690;6.472;2022-11-15T00:04:09;18.53;;;8.73;;
15363;SDS011;7781;49.690;6.472;2022-11-15T00:06:57;9.93;;;7.33;;
15363;SDS011;7781;49.690;6.472;2022-11-15T00:09:45;10.57;;;7.00;;
15363;SDS011;7781;49.690;6.472;2022-11-15T00:12:33;13.63;;;8.80;;
15363;SDS011;7781;49.690;6.472;2022-11-15T00:15:24;15.40;;;9.07;;
15363;SDS011;7781;49.690;6.472;2022-11-15T00:18:12;9.00;;;7.07;;
15363;SDS011;7781;49.690;6.472;2022-11-15T00:21:05;13.30;;;7.60;;
15363;SDS011;7781;49.690;6.472;2022-11-15T00:23:54;9.50;;;7.17;;
15363;SDS011;7781;49.690;6.472;2022-11-15T00:26:41;8.20;;;6.37;;
15363;SDS011;7781;49.690;6.472;2022-11-15T00:29:29;7.50;;;6.13;;
15363;SDS011;7781;49.690;6.472;2022-11-15T00:32:18;8.30;;;5.97;;
15363;SDS011;7781;49.690;6.472;2022-11-15T00:35:05;8.00;;;5.20;;
15363;SDS011;7781;49.690;6.472;2022-11-15T00:37:53;6.87;;;4.77;;
15363;SDS011;7781;49.690;6.472;2022-11-15T00:40:40;11.60;;;5.23;;
15363;SDS011;7781;49.690;6.472;2022-11-15T00:43:29;7.07;;;4.40;;
15363;SDS011;7781;49.690;6.472;2022-11-15T00:46:17;6.40;;;4.70;;
15363;SDS011;7781;49.690;6.472;2022-11-15T00:49:06;8.60;;;4.63;;
15363;SDS011;7781;49.690;6.472;2022-11-15T00:51:54;8.90;;;4.10;;
15363;SDS011;7781;49.690;6.472;2022-11-15T00:54:42;3.80;;;3.07;;
15363;SDS011;7781;49.690;6.472;2022-11-15T00:57:30;6.50;;;3.60;;
15363;SDS011;7781;49.690;6.472;2022-11-15T01:00:18;4.10;;;3.03;;
15363;SDS011;7781;49.690;6.472;2022-11-15T01:03:05;3.70;;;3.13;;
15363;SDS011;7781;49.690;6.472;2022-11-15T01:05:56;3.97;;;3.20;;
15363;SDS011;7781;49.690;6.472;2022-11-15T01:08:45;4.93;;;3.53;;
15363;SDS011;7781;49.690;6.472;2022-11-15T01:11:38;3.70;;;3.30;;
15363;SDS011;7781;49.690;6.472;2022-11-15T01:14:25;3.47;;;2.60;;
15363;SDS011;7781;49.690;6.472;2022-11-15T01:17:13;2.93;;;1.80;;
15363;SDS011;7781;49.690;6.472;2022-11-15T01:20:00;2.30;;;1.83;;
15363;SDS011;7781;49.690;6.472;2022-11-15T01:22:49;3.20;;;1.93;;
15363;SDS011;7781;49.690;6.472;2022-11-15T01:25:36;2.67;;;2.00;;
15363;SDS011;7781;49.690;6.472;2022-11-15T01:28:24;3.60;;;2.27;;
15363;SDS011;7781;49.690;6.472;2022-11-15T01:31:13;2.23;;;2.00;;
15363;SDS011;7781;49.690;6.472;2022-11-15T01:34:01;2.90;;;2.43;;
15363;SDS011;7781;49.690;6.472;2022-11-15T01:36:51;3.80;;;2.37;;
15363;SDS011;7781;49.690;6.472;2022-11-15T01:39:42;5.37;;;2.73;;
15363;SDS011;7781;49.690;6.472;2022-11-15T01:42:29;4.57;;;2.80;;
15363;SDS011;7781;49.690;6.472;2022-11-15T01:45:18;3.77;;;2.80;;
15363;SDS011;7781;49.690;6.472;2022-11-15T01:48:06;4.50;;;3.00;;
15363;SDS011;7781;49.690;6.472;2022-11-15T01:50:57;3.70;;;2.90;;
15363;SDS011;7781;49.690;6.472;2022-11-15T01:53:45;5.43;;;3.37;;
15363;SDS011;7781;49.690;6.472;2022-11-15T01:56:38;5.07;;;3.13;;
15363;SDS011;7781;49.690;6.472;2022-11-15T01:59:30;5.53;;;3.23;;
15363;SDS011;7781;49.690;6.472;2022-11-15T02:02:17;4.60;;;3.20;;
15363;SDS011;7781;49.690;6.472;2022-11-15T02:05:05;4.03;;;2.83;;
15363;SDS011;7781;49.690;6.472;2022-11-15T02:07:59;5.60;;;3.30;;
15363;SDS011;7781;49.690;6.472;2022-11-15T02:10:47;4.00;;;3.23;;
15363;SDS011;7781;49.690;6.472;2022-11-15T02:13:36;6.40;;;3.47;;
15363;SDS011;7781;49.690;6.472;2022-11-15T02:16:27;3.70;;;3.00;;
15363;SDS011;7781;49.690;6.472;2022-11-15T02:19:28;6.33;;;3.17;;
15363;SDS011;7781;49.690;6.472;2022-11-15T02:22:46;3.43;;;2.57;;
15363;SDS011;7781;49.690;6.472;2022-11-15T02:25:52;4.77;;;2.10;;
15363;SDS011;7781;49.690;6.472;2022-11-15T02:28:57;5.63;;;2.77;;
15363;SDS011;7781;49.690;6.472;2022-11-15T02:31:55;4.17;;;2.47;;
15363;SDS011;7781;49.690;6.472;2022-11-15T02:34:50;2.43;;;2.23;;
15363;SDS011;7781;49.690;6.472;2022-11-15T02:37:44;2.40;;;2.20;;
15363;SDS011;7781;49.690;6.472;2022-11-15T02:40:41;4.87;;;2.60;;
15363;SDS011;7781;49.690;6.472;2022-11-15T02:43:36;8.03;;;2.10;;
15363;SDS011;7781;49.690;6.472;2022-11-15T02:46:46;5.30;;;2.00;;
15363;SDS011;7781;49.690;6.472;2022-11-15T02:49:57;3.83;;;2.30;;
15363;SDS011;7781;49.690;6.472;2022-11-15T02:52:45;1.80;;;1.70;;
15363;SDS011;7781;49.690;6.472;2022-11-15T02:55:38;3.70;;;2.17;;
15363;SDS011;7781;49.690;6.472;2022-11-15T02:58:36;2.83;;;1.80;;
15363;SDS011;7781;49.690;6.472;2022-11-15T03:01:38;2.37;;;2.10;;
15363;SDS011;7781;49.690;6.472;2022-11-15T03:04:36;4.03;;;2.20;;
15363;SDS011;7781;49.690;6.472;2022-11-15T03:07:35;4.50;;;1.77;;
15363;SDS011;7781;49.690;6.472;2022-11-15T03:10:31;2.07;;;1.73;;
15363;SDS011;7781;49.690;6.472;2022-11-15T03:13:24;2.50;;;1.57;;
15363;SDS011;7781;49.690;6.472;2022-11-15T03:16:15;2.20;;;1.60;;
15363;SDS011;7781;49.690;6.472;2022-11-15T03:19:13;2.27;;;1.60;;
15363;SDS011;7781;49.690;6.472;2022-11-15T03:22:06;7.13;;;2.03;;
15363;SDS011;7781;49.690;6.472;2022-11-15T03:25:00;4.27;;;1.73;;
15363;SDS011;7781;49.690;6.472;2022-11-15T03:27:51;2.33;;;1.70;;
15363;SDS011;7781;49.690;6.472;2022-11-15T03:30:42;2.03;;;1.83;;
15363;SDS011;7781;49.690;6.472;2022-11-15T03:33:33;1.60;;;1.50;;
15363;SDS011;7781;49.690;6.472;2022-11-15T03:36:21;2.17;;;1.40;;
15363;SDS011;7781;49.690;6.472;2022-11-15T03:39:10;1.63;;;1.50;;
15363;SDS011;7781;49.690;6.472;2022-11-15T03:42:10;1.73;;;1.60;;
15363;SDS011;7781;49.690;6.472;2022-11-15T03:45:10;2.63;;;1.07;;
15363;SDS011;7781;49.690;6.472;2022-11-15T03:48:05;5.27;;;1.40;;
15363;SDS011;7781;49.690;6.472;2022-11-15T03:51:00;3.47;;;1.70;;
15363;SDS011;7781;49.690;6.472;2022-11-15T03:53:47;2.73;;;1.60;;
15363;SDS011;7781;49.690;6.472;2022-11-15T03:56:37;1.80;;;1.30;;
15363;SDS011;7781;49.690;6.472;2022-11-15T03:59:32;1.77;;;1.67;;
15363;SDS011;7781;49.690;6.472;2022-11-15T04:02:19;1.73;;;1.47;;
15363;SDS011;7781;49.690;6.472;2022-11-15T04:05:07;2.07;;;1.43;;
15363;SDS011;7781;49.690;6.472;2022-11-15T04:07:54;9.83;;;1.70;;
15363;SDS011;7781;49.690;6.472;2022-11-15T04:10:42;1.80;;;1.50;;
15363;SDS011;7781;49.690;6.472;2022-11-15T04:13:31;1.50;;;1.37;;
15363;SDS011;7781;49.690;6.472;2022-11-15T04:16:21;1.70;;;1.60;;
15363;SDS011;7781;49.690;6.472;2022-11-15T04:19:08;2.20;;;1.60;;
15363;SDS011;7781;49.690;6.472;2022-11-15T04:22:14;2.67;;;1.40;;
15363;SDS011;7781;49.690;6.472;2022-11-15T04:25:20;4.37;;;2.40;;
15363;SDS011;7781;49.690;6.472;2022-11-15T04:28:10;2.20;;;1.83;;
15363;SDS011;7781;49.690;6.472;2022-11-15T04:30:57;2.60;;;1.57;;
15363;SDS011;7781;49.690;6.472;2022-11-15T04:33:49;2.50;;;1.67;;
15363;SDS011;7781;49.690;6.472;2022-11-15T04:36:38;3.23;;;1.60;;
15363;SDS011;7781;49.690;6.472;2022-11-15T04:39:43;2.47;;;1.50;;
15363;SDS011;7781;49.690;6.472;2022-11-15T04:42:33;2.77;;;1.57;;
15363;SDS011;7781;49.690;6.472;2022-11-15T04:45:21;4.20;;;1.57;;
15363;SDS011;7781;49.690;6.472;2022-11-15T04:48:08;2.10;;;1.90;;
15363;SDS011;7781;49.690;6.472;2022-11-15T04:51:00;2.90;;;1.53;;
15363;SDS011;7781;49.690;6.472;2022-11-15T04:53:50;1.77;;;1.50;;
15363;SDS011;7781;49.690;6.472;2022-11-15T04:56:38;1.90;;;1.73;;
15363;SDS011;7781;49.690;6.472;2022-11-15T04:59:32;2.43;;;1.90;;
15363;SDS011;7781;49.690;6.472;2022-11-15T05:02:19;2.10;;;1.90;;
15363;SDS011;7781;49.690;6.472;2022-11-15T05:05:08;2.30;;;1.80;;
15363;SDS011;7781;49.690;6.472;2022-11-15T05:07:55;4.00;;;2.00;;
15363;SDS011;7781;49.690;6.472;2022-11-15T05:10:44;9.20;;;2.17;;
15363;SDS011;7781;49.690;6.472;2022-11-15T05:13:31;2.97;;;2.13;;
15363;SDS011;7781;49.690;6.472;2022-11-15T05:16:21;2.63;;;1.93;;
15363;SDS011;7781;49.690;6.472;2022-11-15T05:19:09;9.90;;;2.33;;
15363;SDS011;7781;49.690;6.472;2022-11-15T05:21:58;3.77;;;1.97;;
15363;SDS011;7781;49.690;6.472;2022-11-15T05:24:47;2.53;;;1.70;;
15363;SDS011;7781;49.690;6.472;2022-11-15T05:27:34;5.27;;;1.90;;
15363;SDS011;7781;49.690;6.472;2022-11-15T05:30:21;3.17;;;2.57;;
15363;SDS011;7781;49.690;6.472;2022-11-15T05:33:08;1.97;;;1.50;;
15363;SDS011;7781;49.690;6.472;2022-11-15T05:35:57;4.37;;;1.90;;
15363;SDS011;7781;49.690;6.472;2022-11-15T05:38:51;2.33;;;1.70;;
15363;SDS011;7781;49.690;6.472;2022-11-15T05:41:41;5.70;;;2.73;;
15363;SDS011;7781;49.690;6.472;2022-11-15T05:44:32;4.43;;;2.67;;
15363;SDS011;7781;49.690;6.472;2022-11-15T05:47:21;3.50;;;1.60;;
15363;SDS011;7781;49.690;6.472;2022-11-15T05:50:11;1.83;;;1.70;;
15363;SDS011;7781;49.690;6.472;2022-11-15T05:53:01;2.60;;;1.80;;
15363;SDS011;7781;49.690;6.472;2022-11-15T05:55:49;1.70;;;1.60;;
15363;SDS011;7781;49.690;6.472;2022-11-15T05:58:39;1.70;;;1.60;;
15363;SDS011;7781;49.690;6.472;2022-11-15T06:01:26;3.80;;;1.60;;
15363;SDS011;7781;49.690;6.472;2022-11-15T06:04:14;5.40;;;2.40;;
15363;SDS011;7781;49.690;6.472;2022-11-15T06:07:01;5.73;;;2.30;;
15363;SDS011;7781;49.690;6.472;2022-11-15T06:09:48;4.17;;;2.63;;
15363;SDS011;7781;49.690;6.472;2022-11-15T06:12:36;7.33;;;2.50;;
15363;SDS011;7781;49.690;6.472;2022-11-15T06:15:25;8.93;;;3.20;;
15363;SDS011;7781;49.690;6.472;2022-11-15T06:18:12;4.93;;;2.40;;
15363;SDS011;7781;49.690;6.472;2022-11-15T06:21:00;2.87;;;1.90;;
15363;SDS011;7781;49.690;6.472;2022-11-15T06:23:49;3.90;;;1.67;;
15363;SDS011;7781;49.690;6.472;2022-11-15T06:26:37;2.73;;;1.60;;
15363;SDS011;7781;49.690;6.472;2022-11-15T06:29:26;1.70;;;1.60;;
15363;SDS011;7781;49.690;6.472;2022-11-15T06:32:16;3.27;;;1.63;;
15363;SDS011;7781;49.690;6.472;2022-11-15T06:35:04;3.47;;;1.50;;
15363;SDS011;7781;49.690;6.472;2022-11-15T06:37:52;1.70;;;1.60;;
15363;SDS011;7781;49.690;6.472;2022-11-15T06:40:41;4.07;;;1.50;;
15363;SDS011;7781;49.690;6.472;2022-11-15T06:43:28;3.67;;;1.60;;
15363;SDS011;7781;49.690;6.472;2022-11-15T06:46:17;1.63;;;1.27;;
15363;SDS011;7781;49.690;6.472;2022-11-15T06:49:08;3.00;;;1.50;;
15363;SDS011;7781;49.690;6.472;2022-11-15T06:51:56;3.30;;;1.60;;
15363;SDS011;7781;49.690;6.472;2022-11-15T06:54:43;3.80;;;1.67;;
15363;SDS011;7781;49.690;6.472;2022-11-15T06:57:33;8.53;;;3.20;;
15363;SDS011;7781;49.690;6.472;2022-11-15T07:00:21;2.20;;;1.47;;
15363;SDS011;7781;49.690;6.472;2022-11-15T07:03:10;3.20;;;1.27;;
15363;SDS011;7781;49.690;6.472;2022-11-15T07:06:01;1.50;;;1.40;;
15363;SDS011;7781;49.690;6.472;2022-11-15T07:08:52;3.67;;;1.30;;
15363;SDS011;7781;49.690;6.472;2022-11-15T07:11:40;1.53;;;0.97;;
15363;SDS011;7781;49.690;6.472;2022-11-15T07:14:30;3.80;;;1.20;;
15363;SDS011;7781;49.690;6.472;2022-11-15T07:17:17;1.30;;;1.20;;
15363;SDS011;7781;49.690;6.472;2022-11-15T07:20:04;7.33;;;1.03;;
15363;SDS011;7781;49.690;6.472;2022-11-15T07:22:57;1.43;;;1.33;;
15363;SDS011;7781;49.690;6.472;2022-11-15T07:25:46;3.37;;;1.30;;
15363;SDS011;7781;49.690;6.472;2022-11-15T07:28:33;2.47;;;1.20;;
15363;SDS011;7781;49.690;6.472;2022-11-15T07:31:23;1.87;;;1.00;;
15363;SDS011;7781;49.690;6.472;2022-11-15T07:34:13;2.57;;;1.10;;
15363;SDS011;7781;49.690;6.472;2022-11-15T07:37:01;4.17;;;1.30;;
15363;SDS011;7781;49.690;6.472;2022-11-15T07:39:50;2.57;;;1.43;;
15363;SDS011;7781;49.690;6.472;2022-11-15T07:42:39;2.80;;;1.43;;
15363;SDS011;7781;49.690;6.472;2022-11-15T07:45:44;1.30;;;1.13;;
15363;SDS011;7781;49.690;6.472;2022-11-15T07:48:31;1.97;;;1.20;;
15363;SDS011;7781;49.690;6.472;2022-11-15T07:51:28;3.03;;;2.00;;
15363;SDS011;7781;49.690;6.472;2022-11-15T07:54:19;4.53;;;2.00;;
15363;SDS011;7781;49.690;6.472;2022-11-15T07:57:08;4.10;;;1.80;;
15363;SDS011;7781;49.690;6.472;2022-11-15T07:59:55;5.60;;;3.63;;
15363;SDS011;7781;49.690;6.472;2022-11-15T08:02:44;3.53;;;3.23;;
15363;SDS011;7781;49.690;6.472;2022-11-15T08:05:33;6.10;;;3.30;;
15363;SDS011;7781;49.690;6.472;2022-11-15T08:08:21;5.77;;;2.60;;
15363;SDS011;7781;49.690;6.472;2022-11-15T08:11:10;3.93;;;2.17;;
15363;SDS011;7781;49.690;6.472;2022-11-15T08:14:01;4.40;;;2.17;;
15363;SDS011;7781;49.690;6.472;2022-11-15T08:16:49;4.00;;;3.37;;
15363;SDS011;7781;49.690;6.472;2022-11-15T08:19:38;8.33;;;4.93;;
15363;SDS011;7781;49.690;6.472;2022-11-15T08:22:26;12.23;;;4.80;;
15363;SDS011;7781;49.690;6.472;2022-11-15T08:25:13;5.03;;;3.80;;
15363;SDS011;7781;49.690;6.472;2022-11-15T08:28:03;14.00;;;3.80;;
15363;SDS011;7781;49.690;6.472;2022-11-15T08:30:53;7.33;;;3.60;;
15363;SDS011;7781;49.690;6.472;2022-11-15T08:33:41;5.20;;;3.87;;
15363;SDS011;7781;49.690;6.472;2022-11-15T08:36:28;14.33;;;4.20;;
15363;SDS011;7781;49.690;6.472;2022-11-15T08:39:28;15.60;;;4.00;;
15363;SDS011;7781;49.690;6.472;2022-11-15T08:42:15;9.87;;;3.87;;
15363;SDS011;7781;49.690;6.472;2022-11-15T08:45:05;7.00;;;3.50;;
15363;SDS011;7781;49.690;6.472;2022-11-15T08:47:58;4.87;;;3.10;;
15363;SDS011;7781;49.690;6.472;2022-11-15T08:50:51;6.00;;;3.33;;
15363;SDS011;7781;49.690;6.472;2022-11-15T08:53:40;9.47;;;3.80;;
15363;SDS011;7781;49.690;6.472;2022-11-15T08:56:28;9.53;;;4.60;;
15363;SDS011;7781;49.690;6.472;2022-11-15T08:59:18;8.20;;;4.03;;
15363;SDS011;7781;49.690;6.472;2022-11-15T09:02:10;6.43;;;4.00;;
15363;SDS011;7781;49.690;6.472;2022-11-15T09:04:59;6.63;;;4.07;;
15363;SDS011;7781;49.690;6.472;2022-11-15T09:07:47;5.60;;;3.40;;
15363;SDS011;7781;49.690;6.472;2022-11-15T09:10:37;5.43;;;3.07;;
15363;SDS011;7781;49.690;6.472;2022-11-15T09:13:24;8.93;;;2.67;;
15363;SDS011;7781;49.690;6.472;2022-11-15T09:16:11;18.37;;;10.43;;
15363;SDS011;7781;49.690;6.472;2022-11-15T09:19:00;17.60;;;8.50;;
15363;SDS011;7781;49.690;6.472;2022-11-15T09:21:56;13.37;;;5.70;;
15363;SDS011;7781;49.690;6.472;2022-11-15T09:24:43;6.90;;;4.50;;
15363;SDS011;7781;49.690;6.472;2022-11-15T09:27:31;14.00;;;8.23;;
15363;SDS011;7781;49.690;6.472;2022-11-15T09:30:19;4.77;;;3.23;;
15363;SDS011;7781;49.690;6.472;2022-11-15T09:33:07;8.90;;;3.63;;
15363;SDS011;7781;49.690;6.472;2022-11-15T09:35:59;5.20;;;4.27;;
15363;SDS011;7781;49.690;6.472;2022-11-15T09:38:49;4.73;;;3.50;;
15363;SDS011;7781;49.690;6.472;2022-11-15T09:41:58;6.27;;;3.53;;
15363;SDS011;7781;49.690;6.472;2022-11-15T09:45:02;8.97;;;4.03;;
15363;SDS011;7781;49.690;6.472;2022-11-15T09:48:06;7.57;;;5.10;;
15363;SDS011;7781;49.690;6.472;2022-11-15T09:51:21;9.30;;;5.00;;
15363;SDS011;7781;49.690;6.472;2022-11-15T09:53:57;8.47;;;5.03;;
15363;SDS011;7781;49.690;6.472;2022-11-15T09:56:54;5.77;;;3.90;;
15363;SDS011;7781;49.690;6.472;2022-11-15T09:59:33;5.63;;;3.90;;
15363;SDS011;7781;49.690;6.472;2022-11-15T10:02:17;6.43;;;4.07;;
15363;SDS011;7781;49.690;6.472;2022-11-15T10:04:56;5.30;;;3.50;;
15363;SDS011;7781;49.690;6.472;2022-11-15T10:07:27;12.00;;;3.87;;
15363;SDS011;7781;49.690;6.472;2022-11-15T10:10:04;5.27;;;3.43;;
15363;SDS011;7781;49.690;6.472;2022-11-15T10:12:40;3.23;;;2.37;;
15363;SDS011;7781;49.690;6.472;2022-11-15T10:15:16;4.17;;;2.97;;
15363;SDS011;7781;49.690;6.472;2022-11-15T10:20:47;3.03;;;2.70;;
15363;SDS011;7781;49.690;6.472;2022-11-15T10:23:18;6.10;;;3.00;;
15363;SDS011;7781;49.690;6.472;2022-11-15T10:25:51;4.93;;;3.27;;
15363;SDS011;7781;49.690;6.472;2022-11-15T10:28:22;5.53;;;3.50;;
15363;SDS011;7781;49.690;6.472;2022-11-15T10:30:56;3.83;;;3.07;;
15363;SDS011;7781;49.690;6.472;2022-11-15T10:33:31;4.03;;;2.83;;
15363;SDS011;7781;49.690;6.472;2022-11-15T10:36:14;4.03;;;2.73;;
15363;SDS011;7781;49.690;6.472;2022-11-15T10:38:53;3.43;;;3.10;;
15363;SDS011;7781;49.690;6.472;2022-11-15T10:41:35;4.03;;;2.70;;
15363;SDS011;7781;49.690;6.472;2022-11-15T10:44:11;5.33;;;2.40;;
15363;SDS011;7781;49.690;6.472;2022-11-15T10:46:47;7.00;;;3.50;;
15363;SDS011;7781;49.690;6.472;2022-11-15T10:49:38;3.50;;;2.83;;
15363;SDS011;7781;49.690;6.472;2022-11-15T10:52:25;2.20;;;1.90;;
15363;SDS011;7781;49.690;6.472;2022-11-15T10:54:56;4.70;;;2.00;;
15363;SDS011;7781;49.690;6.472;2022-11-15T10:57:32;7.30;;;2.50;;
15363;SDS011;7781;49.690;6.472;2022-11-15T11:00:13;7.77;;;2.10;;
15363;SDS011;7781;49.690;6.472;2022-11-15T11:02:57;2.83;;;1.60;;
15363;SDS011;7781;49.690;6.472;2022-11-15T11:05:29;1.53;;;1.43;;
15363;SDS011;7781;49.690;6.472;2022-11-15T11:08:18;2.90;;;1.60;;
15363;SDS011;7781;49.690;6.472;2022-11-15T11:10:53;3.40;;;2.07;;
15363;SDS011;7781;49.690;6.472;2022-11-15T11:13:30;2.80;;;1.87;;
15363;SDS011;7781;49.690;6.472;2022-11-15T11:16:07;3.97;;;1.97;;
15363;SDS011;7781;49.690;6.472;2022-11-15T11:18:51;5.07;;;2.40;;
15363;SDS011;7781;49.690;6.472;2022-11-15T11:21:32;5.60;;;2.80;;
15363;SDS011;7781;49.690;6.472;2022-11-15T11:24:08;4.87;;;1.87;;
15363;SDS011;7781;49.690;6.472;2022-11-15T11:26:44;3.67;;;2.20;;
15363;SDS011;7781;49.690;6.472;2022-11-15T11:29:29;3.13;;;1.37;;
15363;SDS011;7781;49.690;6.472;2022-11-15T11:32:09;4.20;;;2.77;;
15363;SDS011;7781;49.690;6.472;2022-11-15T11:34:54;5.80;;;1.80;;
15363;SDS011;7781;49.690;6.472;2022-11-15T11:37:35;1.23;;;1.13;;
15363;SDS011;7781;49.690;6.472;2022-11-15T11:40:12;1.20;;;1.10;;
15363;SDS011;7781;49.690;6.472;2022-11-15T11:42:56;1.83;;;1.27;;
15363;SDS011;7781;49.690;6.472;2022-11-15T11:45:41;1.40;;;1.20;;
15363;SDS011;7781;49.690;6.472;2022-11-15T11:48:23;3.40;;;1.30;;
15363;SDS011;7781;49.690;6.472;2022-11-15T11:51:05;4.43;;;2.03;;
15363;SDS011;7781;49.690;6.472;2022-11-15T11:53:42;3.87;;;2.20;;
15363;SDS011;7781;49.690;6.472;2022-11-15T11:56:19;1.27;;;1.17;;
15363;SDS011;7781;49.690;6.472;2022-11-15T11:58:52;3.40;;;2.47;;
15363;SDS011;7781;49.690;6.472;2022-11-15T12:01:25;3.17;;;2.33;;
15363;SDS011;7781;49.690;6.472;2022-11-15T12:04:03;3.67;;;2.00;;
15363;SDS011;7781;49.690;6.472;2022-11-15T12:06:41;4.67;;;1.70;;
15363;SDS011;7781;49.690;6.472;2022-11-15T12:09:17;4.17;;;1.20;;
15363;SDS011;7781;49.690;6.472;2022-11-15T12:11:54;4.87;;;1.97;;
15363;SDS011;7781;49.690;6.472;2022-11-15T12:14:31;3.50;;;1.70;;
15363;SDS011;7781;49.690;6.472;2022-11-15T12:17:08;1.50;;;1.40;;
15363;SDS011;7781;49.690;6.472;2022-11-15T12:19:38;1.60;;;1.50;;
15363;SDS011;7781;49.690;6.472;2022-11-15T12:22:11;2.13;;;1.10;;
15363;SDS011;7781;49.690;6.472;2022-11-15T12:24:45;4.00;;;1.43;;
15363;SDS011;7781;49.690;6.472;2022-11-15T12:27:20;1.50;;;1.30;;
15363;SDS011;7781;49.690;6.472;2022-11-15T12:29:55;2.10;;;1.10;;
15363;SDS011;7781;49.690;6.472;2022-11-15T12:32:30;1.60;;;1.50;;
15363;SDS011;7781;49.690;6.472;2022-11-15T12:35:02;1.93;;;1.37;;
15363;SDS011;7781;49.690;6.472;2022-11-15T12:40:27;2.93;;;1.53;;
15363;SDS011;7781;49.690;6.472;2022-11-15T12:43:04;1.47;;;1.37;;
15363;SDS011;7781;49.690;6.472;2022-11-15T12:46:03;1.40;;;1.30;;
15363;SDS011;7781;49.690;6.472;2022-11-15T12:57:40;2.13;;;1.30;;
15363;SDS011;7781;49.690;6.472;2022-11-15T13:03:21;1.77;;;1.30;;
15363;SDS011;7781;49.690;6.472;2022-11-15T13:12:08;1.70;;;1.20;;
15363;SDS011;7781;49.690;6.472;2022-11-15T13:14:47;5.30;;;1.70;;
15363;SDS011;7781;49.690;6.472;2022-11-15T13:17:33;1.80;;;1.70;;
15363;SDS011;7781;49.690;6.472;2022-11-15T13:20:17;3.03;;;1.47;;
15363;SDS011;7781;49.690;6.472;2022-11-15T13:22:51;1.57;;;1.20;;
15363;SDS011;7781;49.690;6.472;2022-11-15T13:25:38;1.60;;;1.43;;
15363;SDS011;7781;49.690;6.472;2022-11-15T13:28:31;7.57;;;1.60;;
15363;SDS011;7781;49.690;6.472;2022-11-15T13:31:03;1.87;;;1.50;;
15363;SDS011;7781;49.690;6.472;2022-11-15T13:34:14;1.77;;;1.30;;
15363;SDS011;7781;49.690;6.472;2022-11-15T13:37:13;1.23;;;1.00;;
15363;SDS011;7781;49.690;6.472;2022-11-15T13:40:15;1.87;;;1.20;;
15363;SDS011;7781;49.690;6.472;2022-11-15T13:42:56;1.70;;;1.23;;
15363;SDS011;7781;49.690;6.472;2022-11-15T13:45:26;1.20;;;1.10;;
15363;SDS011;7781;49.690;6.472;2022-11-15T13:47:56;6.87;;;1.23;;
15363;SDS011;7781;49.690;6.472;2022-11-15T13:50:29;1.17;;;1.07;;
15363;SDS011;7781;49.690;6.472;2022-11-15T13:53:02;1.93;;;1.10;;
15363;SDS011;7781;49.690;6.472;2022-11-15T13:55:34;2.67;;;1.50;;
15363;SDS011;7781;49.690;6.472;2022-11-15T13:58:04;2.00;;;1.40;;
15363;SDS011;7781;49.690;6.472;2022-11-15T14:00:35;3.23;;;1.30;;
15363;SDS011;7781;49.690;6.472;2022-11-15T14:03:07;2.03;;;1.17;;
15363;SDS011;7781;49.690;6.472;2022-11-15T14:05:46;3.27;;;1.43;;
15363;SDS011;7781;49.690;6.472;2022-11-15T14:08:33;3.23;;;1.07;;
15363;SDS011;7781;49.690;6.472;2022-11-15T14:11:10;2.30;;;1.03;;
15363;SDS011;7781;49.690;6.472;2022-11-15T14:13:59;1.30;;;1.20;;
15363;SDS011;7781;49.690;6.472;2022-11-15T14:16:44;1.27;;;1.17;;
15363;SDS011;7781;49.690;6.472;2022-11-15T14:22:11;1.37;;;1.20;;
15363;SDS011;7781;49.690;6.472;2022-11-15T14:28:07;3.47;;;1.30;;
15363;SDS011;7781;49.690;6.472;2022-11-15T14:30:41;2.23;;;1.27;;
15363;SDS011;7781;49.690;6.472;2022-11-15T14:33:19;1.30;;;1.03;;
15363;SDS011;7781;49.690;6.472;2022-11-15T14:35:50;3.93;;;1.30;;
15363;SDS011;7781;49.690;6.472;2022-11-15T14:38:20;1.57;;;1.10;;
15363;SDS011;7781;49.690;6.472;2022-11-15T14:40:49;3.23;;;1.10;;
15363;SDS011;7781;49.690;6.472;2022-11-15T14:43:20;1.63;;;1.10;;
15363;SDS011;7781;49.690;6.472;2022-11-15T14:45:49;1.53;;;1.10;;
15363;SDS011;7781;49.690;6.472;2022-11-15T14:48:18;1.43;;;1.27;;
15363;SDS011;7781;49.690;6.472;2022-11-15T14:50:48;1.13;;;1.00;;
15363;SDS011;7781;49.690;6.472;2022-11-15T14:53:17;1.43;;;1.33;;
15363;SDS011;7781;49.690;6.472;2022-11-15T14:55:47;1.40;;;1.10;;
15363;SDS011;7781;49.690;6.472;2022-11-15T14:58:26;3.13;;;1.33;;
15363;SDS011;7781;49.690;6.472;2022-11-15T15:00:57;1.43;;;1.33;;
15363;SDS011;7781;49.690;6.472;2022-11-15T15:03:26;2.30;;;1.40;;
15363;SDS011;7781;49.690;6.472;2022-11-15T15:05:54;3.50;;;1.27;;
15363;SDS011;7781;49.690;6.472;2022-11-15T15:08:25;1.37;;;1.27;;
15363;SDS011;7781;49.690;6.472;2022-11-15T15:10:55;2.10;;;1.10;;
15363;SDS011;7781;49.690;6.472;2022-11-15T15:13:26;1.77;;;1.23;;
15363;SDS011;7781;49.690;6.472;2022-11-15T15:15:56;3.57;;;1.67;;
15363;SDS011;7781;49.690;6.472;2022-11-15T15:18:25;2.27;;;1.20;;
15363;SDS011;7781;49.690;6.472;2022-11-15T15:20:58;4.23;;;1.70;;
15363;SDS011;7781;49.690;6.472;2022-11-15T15:23:29;1.47;;;1.37;;
15363;SDS011;7781;49.690;6.472;2022-11-15T15:25:58;1.50;;;1.20;;
15363;SDS011;7781;49.690;6.472;2022-11-15T15:28:30;6.60;;;1.73;;
15363;SDS011;7781;49.690;6.472;2022-11-15T15:31:01;2.37;;;1.60;;
15363;SDS011;7781;49.690;6.472;2022-11-15T15:33:32;2.67;;;1.40;;
15363;SDS011;7781;49.690;6.472;2022-11-15T15:36:02;1.67;;;1.37;;
15363;SDS011;7781;49.690;6.472;2022-11-15T15:38:32;1.40;;;1.17;;
15363;SDS011;7781;49.690;6.472;2022-11-15T15:41:01;3.40;;;1.40;;
15363;SDS011;7781;49.690;6.472;2022-11-15T15:43:35;3.50;;;1.10;;
15363;SDS011;7781;49.690;6.472;2022-11-15T15:46:07;1.33;;;1.23;;
15363;SDS011;7781;49.690;6.472;2022-11-15T15:48:39;1.60;;;1.30;;
15363;SDS011;7781;49.690;6.472;2022-11-15T15:51:07;2.10;;;1.40;;
15363;SDS011;7781;49.690;6.472;2022-11-15T15:53:47;29.67;;;11.80;;
15363;SDS011;7781;49.690;6.472;2022-11-15T15:56:17;2.50;;;1.30;;
15363;SDS011;7781;49.690;6.472;2022-11-15T15:58:48;4.17;;;1.60;;
15363;SDS011;7781;49.690;6.472;2022-11-15T16:01:16;2.00;;;1.50;;
15363;SDS011;7781;49.690;6.472;2022-11-15T16:03:44;4.43;;;1.80;;
15363;SDS011;7781;49.690;6.472;2022-11-15T16:06:35;2.67;;;1.67;;
15363;SDS011;7781;49.690;6.472;2022-11-15T16:09:08;2.50;;;1.70;;
15363;SDS011;7781;49.690;6.472;2022-11-15T16:11:44;3.30;;;1.53;;
15363;SDS011;7781;49.690;6.472;2022-11-15T16:14:14;2.13;;;1.93;;
15363;SDS011;7781;49.690;6.472;2022-11-15T16:16:43;4.30;;;3.30;;
15363;SDS011;7781;49.690;6.472;2022-11-15T16:19:12;3.57;;;2.40;;
15363;SDS011;7781;49.690;6.472;2022-11-15T16:21:41;2.73;;;2.37;;
15363;SDS011;7781;49.690;6.472;2022-11-15T16:24:10;4.27;;;3.50;;
15363;SDS011;7781;49.690;6.472;2022-11-15T16:26:38;4.30;;;3.33;;
15363;SDS011;7781;49.690;6.472;2022-11-15T16:29:07;7.70;;;2.50;;
15363;SDS011;7781;49.690;6.472;2022-11-15T16:31:38;2.90;;;2.00;;
15363;SDS011;7781;49.690;6.472;2022-11-15T16:34:06;2.90;;;1.80;;
15363;SDS011;7781;49.690;6.472;2022-11-15T16:36:35;2.90;;;1.90;;
15363;SDS011;7781;49.690;6.472;2022-11-15T16:39:04;2.70;;;1.63;;
15363;SDS011;7781;49.690;6.472;2022-11-15T16:41:32;2.90;;;1.73;;
15363;SDS011;7781;49.690;6.472;2022-11-15T16:44:02;3.40;;;2.27;;
15363;SDS011;7781;49.690;6.472;2022-11-15T16:46:32;3.43;;;1.70;;
15363;SDS011;7781;49.690;6.472;2022-11-15T16:49:02;4.20;;;2.60;;
15363;SDS011;7781;49.690;6.472;2022-11-15T16:51:31;2.97;;;2.17;;
15363;SDS011;7781;49.690;6.472;2022-11-15T16:53:59;3.87;;;2.33;;
15363;SDS011;7781;49.690;6.472;2022-11-15T16:56:28;5.10;;;2.07;;
15363;SDS011;7781;49.690;6.472;2022-11-15T16:58:59;3.50;;;2.23;;
15363;SDS011;7781;49.690;6.472;2022-11-15T17:01:30;3.67;;;2.90;;
15363;SDS011;7781;49.690;6.472;2022-11-15T17:04:01;4.83;;;3.37;;
15363;SDS011;7781;49.690;6.472;2022-11-15T17:06:38;2.67;;;2.33;;
15363;SDS011;7781;49.690;6.472;2022-11-15T17:09:09;4.23;;;2.00;;
15363;SDS011;7781;49.690;6.472;2022-11-15T17:11:39;5.60;;;2.77;;
15363;SDS011;7781;49.690;6.472;2022-11-15T17:14:09;3.77;;;2.60;;